createdAt,value
2022-12-09T00:02:21.521Z,11.27
2022-12-09T00:07:24.847Z,12.70
2022-12-09T00:12:28.011Z,12.90
2022-12-09T00:17:31.463Z,11.53
2022-12-09T00:22:34.675Z,11.93
2022-12-09T00:27:37.742Z,13.13
2022-12-09T00:32:40.871Z,10.87
2022-12-09T00:37:44.305Z,9.73
2022-12-09T00:42:47.166Z,10.90
2022-12-09T00:47:50.147Z,12.37
2022-12-09T00:52:53.102Z,15.03
2022-12-09T00:57:56.462Z,13.43
2022-12-09T01:02:59.661Z,13.70
2022-12-09T01:08:02.832Z,11.30
2022-12-09T01:13:06.740Z,10.50
2022-12-09T01:18:12.222Z,14.07
2022-12-09T01:23:15.092Z,13.03
2022-12-09T01:28:18.052Z,10.97
2022-12-09T01:33:20.837Z,12.70
2022-12-09T01:38:23.774Z,12.33
2022-12-09T01:43:26.877Z,10.50
2022-12-09T01:48:39.540Z,12.80
2022-12-09T01:53:46.485Z,11.63
2022-12-09T01:58:50.565Z,11.03
2022-12-09T02:03:53.908Z,12.23
2022-12-09T02:08:58.437Z,12.67
2022-12-09T02:14:39.582Z,11.83
2022-12-09T02:19:51.421Z,12.10
2022-12-09T02:25:21.162Z,12.03
2022-12-09T02:30:33.609Z,12.57
2022-12-09T02:35:57.519Z,12.00
2022-12-09T02:41:07.626Z,14.30
2022-12-09T02:46:13.283Z,13.33
2022-12-09T02:51:20.099Z,12.50
2022-12-09T02:56:24.304Z,12.10
2022-12-09T03:01:49.173Z,12.67
2022-12-09T03:06:55.434Z,12.80
2022-12-09T03:12:06.421Z,11.03
2022-12-09T03:17:33.593Z,9.70
2022-12-09T03:22:40.594Z,13.70
2022-12-09T03:27:50.064Z,12.43
2022-12-09T03:32:56.092Z,11.77
2022-12-09T03:38:01.833Z,10.27
2022-12-09T03:43:11.099Z,11.20
2022-12-09T03:48:14.980Z,14.00
2022-12-09T03:53:26.141Z,9.30
2022-12-09T03:58:33.591Z,10.77
2022-12-09T04:03:37.854Z,11.47
2022-12-09T04:08:41.213Z,14.27
2022-12-09T04:13:44.135Z,13.73
2022-12-09T04:18:47.394Z,15.90
2022-12-09T04:23:50.836Z,17.33
2022-12-09T04:28:53.889Z,15.10
2022-12-09T04:33:56.792Z,17.13
2022-12-09T04:39:00.048Z,14.17
2022-12-09T04:44:03.391Z,14.63
2022-12-09T04:49:06.374Z,16.60
2022-12-09T04:54:14.647Z,16.53
2022-12-09T04:59:18.027Z,15.83
2022-12-09T05:04:21.695Z,15.07
2022-12-09T05:09:25.135Z,15.30
2022-12-09T05:14:28.616Z,15.50
2022-12-09T05:19:31.753Z,16.80
2022-12-09T05:24:34.890Z,15.83
2022-12-09T05:29:38.045Z,16.17
2022-12-09T05:34:41.211Z,13.63
2022-12-09T05:39:44.281Z,14.50
2022-12-09T05:44:47.190Z,15.40
2022-12-09T05:49:50.381Z,16.90
2022-12-09T05:54:53.452Z,17.83
2022-12-09T05:59:56.851Z,15.07
2022-12-09T06:05:00.192Z,15.30
2022-12-09T06:10:04.978Z,16.10
2022-12-09T06:15:11.386Z,16.80
2022-12-09T06:20:16.377Z,16.03
2022-12-09T06:25:19.853Z,18.77
2022-12-09T06:30:22.839Z,18.70
2022-12-09T06:35:26.129Z,21.50
2022-12-09T06:40:29.069Z,16.03
2022-12-09T06:45:32.103Z,22.80
2022-12-09T06:50:35.055Z,18.93
2022-12-09T06:55:38.570Z,21.03
2022-12-09T07:00:41.981Z,20.07
2022-12-09T07:05:46.011Z,16.93
2022-12-09T07:10:54.684Z,18.20
2022-12-09T07:15:59.768Z,20.37
2022-12-09T07:21:11.937Z,18.60
2022-12-09T07:26:15.734Z,19.73
2022-12-09T07:31:28.577Z,18.03
2022-12-09T07:36:35.121Z,18.43
2022-12-09T07:41:38.216Z,18.43
2022-12-09T07:46:41.234Z,19.40
2022-12-09T07:51:45.243Z,19.00
2022-12-09T07:56:48.780Z,23.20
2022-12-09T08:01:52.210Z,22.20
2022-12-09T08:06:55.330Z,21.97
2022-12-09T08:11:59.400Z,21.07
2022-12-09T08:17:02.693Z,23.67
2022-12-09T08:22:06.238Z,23.13
2022-12-09T08:27:09.342Z,21.53
2022-12-09T08:32:12.907Z,21.10
2022-12-09T08:37:15.954Z,22.50
2022-12-09T08:42:19.030Z,19.47
2022-12-09T08:47:22.224Z,25.93
2022-12-09T08:52:26.141Z,24.80
2022-12-09T08:57:29.505Z,26.90
2022-12-09T09:02:32.800Z,22.40
2022-12-09T09:07:37.251Z,19.67
2022-12-09T09:12:43.503Z,20.00
2022-12-09T09:17:51.572Z,25.23
2022-12-09T09:23:01.147Z,22.67
2022-12-09T09:28:06.278Z,21.87
2022-12-09T09:33:09.765Z,20.13
2022-12-09T09:38:13.318Z,20.33
2022-12-09T09:43:19.648Z,20.03
2022-12-09T09:48:29.851Z,19.90
2022-12-09T09:53:36.403Z,20.90
2022-12-09T09:58:57.247Z,18.83
2022-12-09T10:04:14.410Z,19.30
2022-12-09T10:09:52.853Z,19.80
2022-12-09T10:15:12.460Z,19.70
2022-12-09T10:20:21.390Z,16.63
2022-12-09T10:25:32.036Z,17.30
2022-12-09T10:30:41.685Z,17.93
2022-12-09T10:35:47.789Z,18.30
2022-12-09T10:41:08.018Z,17.90
2022-12-09T10:46:24.344Z,20.07
2022-12-09T10:51:36.537Z,19.17
2022-12-09T10:57:04.492Z,16.60
2022-12-09T11:02:10.996Z,17.53
2022-12-09T11:07:22.935Z,17.30
2022-12-09T11:12:40.428Z,17.70
2022-12-09T11:17:59.521Z,17.23
2022-12-09T11:23:23.113Z,17.70
2022-12-09T11:28:31.128Z,16.17
2022-12-09T11:33:40.893Z,14.60
2022-12-09T11:38:51.828Z,14.70
2022-12-09T11:43:57.150Z,14.80
2022-12-09T11:49:16.776Z,13.63
2022-12-09T11:54:50.265Z,14.60
2022-12-09T12:00:01.452Z,14.57
2022-12-09T12:05:29.693Z,14.97
2022-12-09T12:10:41.036Z,13.80
2022-12-09T12:15:48.888Z,14.18
2022-12-09T12:21:19.805Z,15.77
2022-12-09T12:26:43.576Z,12.67
2022-12-09T12:32:29.164Z,16.37
2022-12-09T12:37:37.735Z,16.17
2022-12-09T12:43:33.005Z,17.40
2022-12-09T12:48:48.285Z,12.73
2022-12-09T12:54:51.107Z,13.57
2022-12-09T13:00:11.198Z,13.43
2022-12-09T13:05:27.750Z,12.90
2022-12-09T13:10:50.664Z,12.20
2022-12-09T13:16:00.669Z,13.20
2022-12-09T13:21:06.783Z,12.50
2022-12-09T13:26:58.773Z,13.87
2022-12-09T13:32:51.922Z,41.00
2022-12-09T13:37:57.011Z,29.50
2022-12-09T13:43:02.955Z,43.33
2022-12-09T13:48:16.465Z,20.17
2022-12-09T13:53:20.330Z,18.10
2022-12-09T13:59:16.059Z,25.83
2022-12-09T14:04:21.527Z,18.50
2022-12-09T14:09:27.059Z,19.60
2022-12-09T14:14:29.973Z,26.27
2022-12-09T14:19:50.916Z,18.33
2022-12-09T14:24:59.207Z,18.13
2022-12-09T14:30:34.710Z,16.33
2022-12-09T14:35:50.578Z,15.80
2022-12-09T14:40:59.432Z,16.63
2022-12-09T14:46:28.540Z,18.30
2022-12-09T14:52:03.731Z,17.13
2022-12-09T14:57:34.477Z,15.03
2022-12-09T15:02:37.543Z,29.07
2022-12-09T15:07:45.178Z,20.97
2022-12-09T15:12:53.112Z,19.17
2022-12-09T15:18:01.961Z,21.20
2022-12-09T15:23:30.888Z,15.10
2022-12-09T15:28:37.310Z,14.37
2022-12-09T15:33:47.389Z,18.00
2022-12-09T15:39:11.052Z,15.97
2022-12-09T15:44:19.374Z,16.63
2022-12-09T15:49:29.278Z,16.80
2022-12-09T15:54:39.622Z,14.23
2022-12-09T15:59:49.733Z,15.10
2022-12-09T16:05:03.117Z,13.57
2022-12-09T16:10:17.012Z,13.17
2022-12-09T16:15:56.540Z,14.67
2022-12-09T16:21:25.370Z,13.73
2022-12-09T16:26:37.153Z,17.10
2022-12-09T16:31:40.650Z,16.80
2022-12-09T16:36:55.958Z,15.90
2022-12-09T16:42:01.785Z,13.43
2022-12-09T16:47:18.304Z,17.37
2022-12-09T16:52:24.343Z,12.87
2022-12-09T16:57:27.216Z,12.37
2022-12-09T17:02:44.021Z,14.00
2022-12-09T17:07:46.981Z,14.63
2022-12-09T17:12:50.034Z,14.27
2022-12-09T17:17:52.860Z,12.73
2022-12-09T17:22:56.184Z,11.07
2022-12-09T17:28:08.148Z,11.63
2022-12-09T17:33:10.975Z,11.37
2022-12-09T17:38:13.871Z,11.17
2022-12-09T17:43:16.854Z,12.07
2022-12-09T17:48:19.732Z,14.77
2022-12-09T17:53:23.068Z,11.03
2022-12-09T17:58:25.996Z,12.33
2022-12-09T18:03:54.339Z,11.10
2022-12-09T18:08:53.403Z,10.33
2022-12-09T18:13:56.429Z,12.27
2022-12-09T18:19:06.249Z,11.13
2022-12-09T18:24:09.601Z,10.43
2022-12-09T18:29:13.077Z,10.50
2022-12-09T18:34:16.183Z,11.20
2022-12-09T18:39:20.140Z,10.13
2022-12-09T18:44:23.059Z,10.33
2022-12-09T18:49:28.474Z,10.00
2022-12-09T18:54:32.627Z,9.17
2022-12-09T18:59:35.563Z,7.30
2022-12-09T19:04:38.459Z,7.70
2022-12-09T19:09:42.055Z,6.47
2022-12-09T19:14:44.925Z,8.40
2022-12-09T19:19:49.532Z,7.47
2022-12-09T19:24:52.943Z,7.20
2022-12-09T19:29:55.933Z,8.30
2022-12-09T19:34:58.848Z,7.80
2022-12-09T19:40:01.763Z,8.77
2022-12-09T19:45:09.080Z,10.40
2022-12-09T19:50:15.587Z,15.17
2022-12-09T19:55:18.429Z,9.77
2022-12-09T20:00:21.382Z,8.33
2022-12-09T20:05:24.346Z,11.60
2022-12-09T20:10:27.295Z,11.50
2022-12-09T20:15:30.183Z,14.97
2022-12-09T20:20:34.787Z,12.50
2022-12-09T20:25:37.665Z,16.07
2022-12-09T20:30:40.520Z,19.43
2022-12-09T20:35:43.382Z,17.57
2022-12-09T20:40:46.285Z,12.40
2022-12-09T20:45:49.235Z,12.67
2022-12-09T20:50:52.637Z,15.07
2022-12-09T20:55:57.697Z,12.83
2022-12-09T21:01:38.200Z,15.80
2022-12-09T21:06:42.417Z,14.97
2022-12-09T21:11:47.004Z,12.17
2022-12-09T21:16:50.838Z,8.73
2022-12-09T21:21:54.659Z,9.13
2022-12-09T21:26:58.128Z,8.27
2022-12-09T21:32:01.791Z,6.50
2022-12-09T21:37:04.793Z,6.10
2022-12-09T21:42:09.218Z,5.77
2022-12-09T21:47:12.614Z,6.87
2022-12-09T21:52:15.923Z,5.47
2022-12-09T21:57:18.863Z,5.47
2022-12-09T22:02:21.830Z,4.80
2022-12-09T22:07:24.704Z,4.33
2022-12-09T22:12:28.279Z,5.03
2022-12-09T22:17:32.375Z,4.13
2022-12-09T22:22:36.539Z,3.37
2022-12-09T22:27:41.331Z,8.73
2022-12-09T22:32:50.419Z,4.33
2022-12-09T22:37:53.737Z,4.33
2022-12-09T22:42:56.866Z,5.37
2022-12-09T22:47:59.697Z,6.90
2022-12-09T22:53:02.618Z,9.83
2022-12-09T22:58:05.506Z,6.63
2022-12-09T23:03:08.470Z,6.63
2022-12-09T23:08:12.480Z,7.27
2022-12-09T23:13:15.870Z,4.60
2022-12-09T23:18:18.807Z,5.97
2022-12-09T23:23:21.839Z,8.90
2022-12-09T23:28:24.744Z,14.40
2022-12-09T23:33:27.699Z,17.43
2022-12-09T23:38:30.545Z,14.00
2022-12-09T23:43:35.436Z,16.70
2022-12-09T23:48:38.299Z,13.20
2022-12-09T23:53:42.875Z,12.47
2022-12-09T23:58:47.106Z,10.60
